Time;durP1;ratioP1;P1;durP2;ratioP2;P2;SDS_P1;SDS_P2;PMS_P1;PMS_P2;Temp;Humidity;BMP_temperature;BMP_pressure;BME280_temperature;BME280_humidity;BME280_pressure;Samples;Min_cycle;Max_cycle;Signal;HPM_P1;HPM_P2
2022/01/18 00:00:19;;;;;;;;;76.75;60.00;;;;;;;;5066546;28;45372;-67
2022/01/18 00:02:45;;;;;;;;;78.25;61.25;;;;;;;;5072067;28;46653;-67
2022/01/18 00:05:15;;;;;;;;;76.25;61.00;;;;;;;;5072788;27;45659;-64
2022/01/18 00:07:40;;;;;;;;;76.00;59.75;;;;;;;;5074678;27;45727;-67
2022/01/18 00:10:06;;;;;;;;;77.25;61.75;;;;;;;;5069074;28;45696;-67
2022/01/18 00:15:28;;;;;;;;;75.00;60.25;;;;;;;;5073089;28;45367;-67
2022/01/18 00:18:06;;;;;;;;;72.00;58.75;;;;;;;;5069976;28;45502;-66
2022/01/18 00:23:10;;;;;;;;;75.25;59.00;;;;;;;;5071908;27;46672;-66
2022/01/18 00:25:38;;;;;;;;;76.25;60.25;;;;;;;;5073492;28;46089;-66
2022/01/18 00:28:06;;;;;;;;;76.00;62.25;;;;;;;;5074987;28;45516;-66
2022/01/18 00:35:42;;;;;;;;;77.00;60.75;;;;;;;;5072255;27;45448;-67
2022/01/18 00:38:29;;;;;;;;;78.25;61.00;;;;;;;;5070026;28;45435;-67
2022/01/18 00:40:54;;;;;;;;;66.50;54.25;;;;;;;;5075005;28;45369;-67
2022/01/18 00:43:20;;;;;;;;;62.25;51.50;;;;;;;;5072349;28;47584;-67
2022/01/18 00:45:45;;;;;;;;;75.50;59.50;;;;;;;;5073188;28;45361;-67
2022/01/18 00:48:11;;;;;;;;;78.00;61.50;;;;;;;;5075758;27;45270;-67
2022/01/18 00:50:36;;;;;;;;;73.50;58.25;;;;;;;;5074842;27;45791;-66
2022/01/18 00:53:05;;;;;;;;;66.00;48.50;;;;;;;;5072897;28;45470;-67
2022/01/18 00:55:35;;;;;;;;;76.75;60.00;;;;;;;;5073815;27;45428;-66
2022/01/18 00:58:00;;;;;;;;;70.75;56.75;;;;;;;;5075207;27;45319;-66
2022/01/18 01:00:25;;;;;;;;;69.25;57.50;;;;;;;;5075751;28;45363;-66
2022/01/18 01:02:50;;;;;;;;;74.75;58.00;;;;;;;;5068266;28;49984;-66
2022/01/18 01:05:16;;;;;;;;;70.75;56.25;;;;;;;;5068274;28;45275;-66
2022/01/18 01:07:41;;;;;;;;;72.50;58.25;;;;;;;;5074485;27;45385;-65
2022/01/18 01:10:06;;;;;;;;;72.50;55.50;;;;;;;;5073457;28;45550;-65
2022/01/18 01:12:32;;;;;;;;;74.75;59.75;;;;;;;;5073674;28;45828;-66
2022/01/18 01:15:05;;;;;;;;;71.00;57.75;;;;;;;;5073622;28;46180;-66
2022/01/18 01:17:47;;;;;;;;;71.75;57.75;;;;;;;;5064316;27;46841;-66
2022/01/18 01:34:17;;;;;;;;;67.00;51.75;;;;;;;;5055973;28;45773;-65
2022/01/18 01:37:01;;;;;;;;;53.50;44.75;;;;;;;;5070184;28;45286;-65
2022/01/18 01:42:57;;;;;;;;;61.75;48.25;;;;;;;;5074504;28;45471;-65
2022/01/18 01:45:01;;;;;;;;;56.75;45.75;;;;;;;;5062796;27;47019;-65
2022/01/18 01:47:35;;;;;;;;;53.00;44.50;;;;;;;;5071589;27;45471;-65
2022/01/18 01:50:01;;;;;;;;;50.00;42.50;;;;;;;;5069726;28;45476;-67
2022/01/18 01:52:26;;;;;;;;;46.00;41.25;;;;;;;;5071841;27;45542;-64
2022/01/18 01:54:53;;;;;;;;;57.00;44.00;;;;;;;;5072306;27;46382;-65
2022/01/18 01:57:19;;;;;;;;;42.75;39.25;;;;;;;;5069574;28;45408;-66
2022/01/18 01:59:44;;;;;;;;;44.00;34.50;;;;;;;;5072209;28;45371;-66
2022/01/18 02:02:09;;;;;;;;;52.25;39.25;;;;;;;;5071408;27;45489;-65
2022/01/18 02:04:35;;;;;;;;;26.00;23.00;;;;;;;;5064137;28;45502;-65
2022/01/18 02:07:00;;;;;;;;;40.75;37.00;;;;;;;;5065744;28;45473;-65
2022/01/18 02:09:25;;;;;;;;;44.25;39.25;;;;;;;;5073003;27;45335;-65
2022/01/18 02:11:51;;;;;;;;;40.25;34.75;;;;;;;;5072778;28;45328;-66
2022/01/18 02:14:20;;;;;;;;;37.25;33.00;;;;;;;;5070258;27;47588;-65
2022/01/18 02:22:13;;;;;;;;;43.50;39.75;;;;;;;;5071605;28;45422;-65
2022/01/18 02:24:39;;;;;;;;;33.25;30.00;;;;;;;;5071472;28;45548;-65
2022/01/18 02:27:04;;;;;;;;;26.00;26.00;;;;;;;;5073751;27;45340;-65
2022/01/18 02:29:29;;;;;;;;;35.00;29.75;;;;;;;;5069872;28;45592;-66
2022/01/18 02:31:55;;;;;;;;;31.50;30.00;;;;;;;;5072056;27;45422;-66
2022/01/18 02:34:21;;;;;;;;;32.25;30.00;;;;;;;;5071101;28;47276;-66
2022/01/18 02:36:47;;;;;;;;;37.25;33.75;;;;;;;;5069913;28;45418;-67
2022/01/18 02:39:13;;;;;;;;;31.00;29.25;;;;;;;;5073353;27;45464;-65
2022/01/18 02:41:38;;;;;;;;;35.00;28.50;;;;;;;;5068206;27;45544;-66
2022/01/18 02:44:12;;;;;;;;;31.50;27.25;;;;;;;;5070018;27;46155;-67
2022/01/18 02:46:38;;;;;;;;;25.50;24.25;;;;;;;;5071281;28;45321;-66
2022/01/18 02:49:04;;;;;;;;;29.25;24.25;;;;;;;;5069801;28;45949;-66
2022/01/18 02:51:30;;;;;;;;;27.75;21.00;;;;;;;;5072448;28;45506;-66
2022/01/18 02:54:00;;;;;;;;;31.25;28.75;;;;;;;;5072634;28;46016;-65
2022/01/18 02:56:34;;;;;;;;;28.50;27.75;;;;;;;;5068212;28;45679;-66
2022/01/18 02:59:16;;;;;;;;;34.25;28.25;;;;;;;;5071108;27;45459;-66
2022/01/18 03:04:25;;;;;;;;;22.25;16.75;;;;;;;;5070937;27;45387;-66
2022/01/18 03:06:51;;;;;;;;;29.00;26.75;;;;;;;;5071146;28;45371;-66
2022/01/18 03:09:16;;;;;;;;;24.75;22.50;;;;;;;;5071337;28;45424;-66
2022/01/18 03:11:41;;;;;;;;;30.75;25.00;;;;;;;;5071177;27;45312;-66
2022/01/18 03:14:06;;;;;;;;;27.25;26.00;;;;;;;;5071001;27;45400;-65
2022/01/18 03:16:32;;;;;;;;;22.75;20.75;;;;;;;;5070663;28;45470;-66
2022/01/18 03:18:57;;;;;;;;;29.75;25.50;;;;;;;;5071469;27;45949;-66
2022/01/18 03:21:22;;;;;;;;;27.75;26.00;;;;;;;;5066105;28;45486;-67
2022/01/18 03:23:52;;;;;;;;;35.75;25.00;;;;;;;;5064733;28;46526;-66
2022/01/18 03:26:18;;;;;;;;;24.00;21.75;;;;;;;;5065205;28;45784;-66
2022/01/18 03:28:44;;;;;;;;;29.25;25.25;;;;;;;;5070872;27;45316;-66
2022/01/18 03:31:09;;;;;;;;;28.50;24.25;;;;;;;;5070457;28;45671;-65
2022/01/18 03:33:34;;;;;;;;;34.00;27.00;;;;;;;;5071261;28;45559;-67
2022/01/18 03:36:00;;;;;;;;;24.00;22.25;;;;;;;;5070968;28;45528;-66
2022/01/18 03:38:31;;;;;;;;;37.25;31.25;;;;;;;;5070653;27;45363;-66
2022/01/18 03:40:58;;;;;;;;;31.75;28.50;;;;;;;;5069454;28;45434;-67
2022/01/18 03:43:23;;;;;;;;;26.50;21.75;;;;;;;;5070005;27;46060;-66
2022/01/18 03:45:48;;;;;;;;;31.00;29.50;;;;;;;;5070282;28;45722;-67
2022/01/18 03:48:27;;;;;;;;;28.00;23.25;;;;;;;;5070761;28;45421;-67
2022/01/18 03:50:53;;;;;;;;;27.25;24.75;;;;;;;;5070512;28;45412;-66
2022/01/18 03:53:20;;;;;;;;;30.50;24.75;;;;;;;;5070038;27;45454;-67
2022/01/18 03:55:45;;;;;;;;;20.50;19.50;;;;;;;;5070682;28;45473;-65
2022/01/18 03:58:10;;;;;;;;;29.00;26.50;;;;;;;;5071768;27;46023;-66
2022/01/18 04:00:35;;;;;;;;;30.50;29.00;;;;;;;;5070730;28;45518;-65
2022/01/18 04:03:01;;;;;;;;;27.00;25.00;;;;;;;;5071714;27;46397;-65
2022/01/18 04:05:26;;;;;;;;;31.75;26.00;;;;;;;;5073715;28;45487;-65
2022/01/18 04:07:51;;;;;;;;;34.75;28.00;;;;;;;;5074051;28;45443;-65
2022/01/18 04:10:17;;;;;;;;;37.75;32.00;;;;;;;;5073801;28;45520;-66
2022/01/18 04:12:42;;;;;;;;;37.00;31.00;;;;;;;;5074096;27;46696;-66
2022/01/18 04:15:09;;;;;;;;;36.25;32.25;;;;;;;;5074236;28;46468;-66
2022/01/18 04:17:51;;;;;;;;;29.50;27.50;;;;;;;;5073730;27;45557;-66
2022/01/18 04:30:53;;;;;;;;;32.50;32.25;;;;;;;;5070114;28;45781;-65
2022/01/18 04:33:19;;;;;;;;;35.00;23.50;;;;;;;;5077635;27;47470;-66
2022/01/18 04:35:44;;;;;;;;;38.25;34.75;;;;;;;;5071231;27;45456;-65
2022/01/18 04:38:09;;;;;;;;;37.25;29.75;;;;;;;;5071032;27;45638;-65
2022/01/18 04:40:36;;;;;;;;;36.00;32.75;;;;;;;;5070157;27;45431;-65
2022/01/18 04:43:13;;;;;;;;;32.50;28.50;;;;;;;;5071425;28;45662;-64
2022/01/18 04:48:28;;;;;;;;;;;;;;;;;;;;;
2022/01/18 04:50:51;;;;;;;;;31.00;27.50;;;;;;;;5073031;27;45782;-65
2022/01/18 04:53:17;;;;;;;;;34.50;28.50;;;;;;;;5071318;27;46429;-65
2022/01/18 04:55:42;;;;;;;;;39.00;27.00;;;;;;;;5071186;27;45946;-66
2022/01/18 04:58:07;;;;;;;;;33.75;27.50;;;;;;;;5069235;28;45547;-65
2022/01/18 05:00:33;;;;;;;;;28.25;24.00;;;;;;;;5073250;28;45451;-65
2022/01/18 05:02:58;;;;;;;;;35.25;29.25;;;;;;;;5074311;28;46530;-65
2022/01/18 05:05:29;;;;;;;;;34.50;28.25;;;;;;;;5071192;28;46438;-65
2022/01/18 05:07:59;;;;;;;;;32.50;30.50;;;;;;;;5072637;27;45554;-65
2022/01/18 05:10:27;;;;;;;;;34.50;28.00;;;;;;;;5071611;27;45864;-66
2022/01/18 05:12:54;;;;;;;;;28.50;26.25;;;;;;;;5053273;28;47348;-65
2022/01/18 05:15:45;;;;;;;;;32.75;26.00;;;;;;;;5065663;28;45585;-66
2022/01/18 05:21:11;;;;;;;;;29.25;26.75;;;;;;;;5072818;28;45388;-65
2022/01/18 05:23:36;;;;;;;;;44.00;26.75;;;;;;;;5070641;28;47311;-65
2022/01/18 05:26:02;;;;;;;;;39.50;29.00;;;;;;;;5070737;27;45442;-66
2022/01/18 05:28:27;;;;;;;;;37.50;36.00;;;;;;;;5067287;28;45503;-67
2022/01/18 05:30:52;;;;;;;;;35.00;32.75;;;;;;;;5070161;27;46037;-65
2022/01/18 05:33:18;;;;;;;;;35.00;33.25;;;;;;;;5065826;28;46138;-66
2022/01/18 05:35:44;;;;;;;;;36.50;32.50;;;;;;;;5068468;27;45377;-65
2022/01/18 05:38:09;;;;;;;;;38.00;35.00;;;;;;;;5068594;27;45510;-65
2022/01/18 05:40:34;;;;;;;;;31.50;29.75;;;;;;;;5060195;28;45491;-65
2022/01/18 05:42:59;;;;;;;;;30.50;27.75;;;;;;;;5064069;28;47340;-65
2022/01/18 05:45:25;;;;;;;;;34.50;31.50;;;;;;;;5073179;28;45457;-65
2022/01/18 05:47:50;;;;;;;;;30.75;28.00;;;;;;;;5065230;28;45506;-64
2022/01/18 05:50:15;;;;;;;;;34.50;27.25;;;;;;;;5064302;28;45326;-65
2022/01/18 05:52:41;;;;;;;;;27.75;27.25;;;;;;;;5050324;28;47042;-66
2022/01/18 05:55:07;;;;;;;;;30.25;25.00;;;;;;;;5070437;28;45673;-65
2022/01/18 05:57:32;;;;;;;;;28.25;25.25;;;;;;;;5072541;27;45408;-64
2022/01/18 06:00:04;;;;;;;;;31.25;30.00;;;;;;;;5070484;28;45369;-65
2022/01/18 06:07:41;;;;;;;;;27.25;24.25;;;;;;;;5063665;28;45429;-65
2022/01/18 06:10:07;;;;;;;;;29.00;26.50;;;;;;;;5069965;28;45494;-66
2022/01/18 06:12:32;;;;;;;;;28.50;25.25;;;;;;;;5067913;28;45461;-65
2022/01/18 06:14:57;;;;;;;;;35.75;28.25;;;;;;;;5062139;28;45295;-66
2022/01/18 06:17:23;;;;;;;;;24.00;21.50;;;;;;;;5064828;28;45528;-65
2022/01/18 06:19:48;;;;;;;;;23.50;22.25;;;;;;;;5067281;28;45431;-65
2022/01/18 06:22:13;;;;;;;;;20.50;20.25;;;;;;;;5062930;28;45631;-65
2022/01/18 06:24:38;;;;;;;;;23.00;21.00;;;;;;;;5070614;28;45536;-63
2022/01/18 06:27:04;;;;;;;;;18.50;18.00;;;;;;;;5065342;27;45519;-63
2022/01/18 06:29:29;;;;;;;;;22.50;20.50;;;;;;;;5069030;27;45623;-64
2022/01/18 06:31:55;;;;;;;;;22.00;21.00;;;;;;;;5071599;28;45650;-63
2022/01/18 06:34:21;;;;;;;;;29.00;23.50;;;;;;;;5071314;27;45412;-62
2022/01/18 06:36:46;;;;;;;;;24.75;22.00;;;;;;;;5071807;28;45405;-65
2022/01/18 06:39:11;;;;;;;;;22.50;21.50;;;;;;;;5073464;27;45460;-65
2022/01/18 06:41:37;;;;;;;;;34.50;27.25;;;;;;;;5067569;28;47949;-66
2022/01/18 06:44:03;;;;;;;;;29.00;26.75;;;;;;;;5071536;27;45427;-66
2022/01/18 06:46:28;;;;;;;;;25.25;24.25;;;;;;;;5068287;28;45386;-66
2022/01/18 06:48:53;;;;;;;;;32.00;27.25;;;;;;;;5070988;27;45410;-66
2022/01/18 06:51:19;;;;;;;;;34.25;29.50;;;;;;;;5073530;28;46331;-66
2022/01/18 06:53:46;;;;;;;;;33.25;24.50;;;;;;;;5071343;27;45325;-66
2022/01/18 06:56:12;;;;;;;;;27.50;23.25;;;;;;;;5065995;28;47257;-67
2022/01/18 06:58:39;;;;;;;;;28.00;26.25;;;;;;;;5061758;28;45509;-67
2022/01/18 07:01:04;;;;;;;;;21.50;18.75;;;;;;;;5072138;27;47421;-66
2022/01/18 07:03:29;;;;;;;;;29.50;25.00;;;;;;;;5071844;28;45437;-66
2022/01/18 07:05:55;;;;;;;;;26.50;25.00;;;;;;;;5072518;28;45364;-67
2022/01/18 07:08:20;;;;;;;;;28.75;25.25;;;;;;;;5070539;28;45357;-66
2022/01/18 07:10:45;;;;;;;;;28.00;25.75;;;;;;;;5070873;27;45492;-66
2022/01/18 07:13:13;;;;;;;;;42.00;36.50;;;;;;;;5071288;28;45470;-66
2022/01/18 07:15:38;;;;;;;;;47.75;42.75;;;;;;;;5069651;28;45450;-65
2022/01/18 07:18:05;;;;;;;;;43.75;35.50;;;;;;;;5073690;27;45358;-65
2022/01/18 07:20:31;;;;;;;;;28.75;26.25;;;;;;;;5068107;28;46615;-65
2022/01/18 07:22:56;;;;;;;;;30.50;26.75;;;;;;;;5063832;28;45435;-66
2022/01/18 07:25:21;;;;;;;;;37.25;35.75;;;;;;;;5058083;28;45340;-65
2022/01/18 07:27:46;;;;;;;;;48.50;40.50;;;;;;;;5071487;28;45529;-65
2022/01/18 07:30:12;;;;;;;;;40.00;34.25;;;;;;;;5071700;28;47807;-64
2022/01/18 07:32:37;;;;;;;;;35.50;30.50;;;;;;;;5070211;28;45432;-65
2022/01/18 07:35:03;;;;;;;;;34.25;29.00;;;;;;;;5073019;28;45620;-66
2022/01/18 07:37:28;;;;;;;;;42.50;37.75;;;;;;;;5072772;28;45456;-65
2022/01/18 07:39:53;;;;;;;;;42.50;32.00;;;;;;;;5074602;27;46416;-66
2022/01/18 07:42:20;;;;;;;;;40.75;35.25;;;;;;;;5076499;27;45401;-65
2022/01/18 07:44:46;;;;;;;;;58.25;48.00;;;;;;;;5074594;28;45329;-65
2022/01/18 07:47:12;;;;;;;;;51.25;39.25;;;;;;;;5066474;28;45495;-65
2022/01/18 07:49:37;;;;;;;;;37.25;33.00;;;;;;;;5064441;28;47104;-65
2022/01/18 07:52:02;;;;;;;;;43.00;38.25;;;;;;;;5071623;27;45426;-66
2022/01/18 07:54:28;;;;;;;;;50.75;41.50;;;;;;;;5074341;27;45368;-66
2022/01/18 07:56:53;;;;;;;;;54.50;41.50;;;;;;;;5074072;28;45533;-66
2022/01/18 07:59:18;;;;;;;;;41.25;38.00;;;;;;;;5074072;27;46077;-65
2022/01/18 08:01:43;;;;;;;;;59.50;50.75;;;;;;;;5073332;28;45889;-66
2022/01/18 08:04:09;;;;;;;;;53.00;39.25;;;;;;;;5072621;27;45515;-67
2022/01/18 08:06:34;;;;;;;;;40.50;37.50;;;;;;;;5075466;27;45752;-66
2022/01/18 08:08:59;;;;;;;;;30.00;28.50;;;;;;;;5074824;27;47551;-66
2022/01/18 08:11:24;;;;;;;;;31.50;30.25;;;;;;;;5074491;27;46079;-67
2022/01/18 08:13:50;;;;;;;;;48.75;41.75;;;;;;;;5074690;27;45488;-67
2022/01/18 08:18:58;;;;;;;;;47.50;39.50;;;;;;;;5058830;28;45689;-66
2022/01/18 08:21:24;;;;;;;;;42.25;37.00;;;;;;;;5075775;28;45438;-66
2022/01/18 08:23:49;;;;;;;;;53.25;42.00;;;;;;;;5075137;27;45469;-66
2022/01/18 08:26:14;;;;;;;;;58.25;46.25;;;;;;;;5074616;27;45325;-65
2022/01/18 08:28:40;;;;;;;;;44.00;35.75;;;;;;;;5074305;27;45669;-66
2022/01/18 08:31:05;;;;;;;;;31.00;28.25;;;;;;;;5073294;28;45502;-65
2022/01/18 08:33:31;;;;;;;;;30.50;27.00;;;;;;;;5075615;28;46042;-66
2022/01/18 08:35:59;;;;;;;;;33.50;31.75;;;;;;;;5074528;28;45476;-66
2022/01/18 08:38:24;;;;;;;;;36.25;34.50;;;;;;;;5074308;27;45439;-66
2022/01/18 08:40:49;;;;;;;;;39.50;33.25;;;;;;;;5072662;27;45463;-66
2022/01/18 08:43:14;;;;;;;;;45.50;39.25;;;;;;;;5074051;27;45490;-66
2022/01/18 08:45:40;;;;;;;;;35.75;32.75;;;;;;;;5073748;28;45621;-65
2022/01/18 08:48:05;;;;;;;;;37.25;31.00;;;;;;;;5076147;27;45731;-65
2022/01/18 08:50:31;;;;;;;;;46.25;37.00;;;;;;;;5071224;28;45397;-65
2022/01/18 08:52:56;;;;;;;;;38.00;34.50;;;;;;;;5072880;27;45365;-65
2022/01/18 08:55:21;;;;;;;;;54.25;43.00;;;;;;;;5073982;27;45431;-65
2022/01/18 08:57:47;;;;;;;;;57.00;43.75;;;;;;;;5073936;28;45025;-65
2022/01/18 09:00:14;;;;;;;;;53.50;44.75;;;;;;;;5074919;27;45361;-65
2022/01/18 09:02:40;;;;;;;;;55.00;46.00;;;;;;;;5074331;27;45388;-65
2022/01/18 09:05:05;;;;;;;;;42.75;39.25;;;;;;;;5069968;27;45354;-65
2022/01/18 09:07:32;;;;;;;;;47.75;41.75;;;;;;;;5063315;27;46270;-66
2022/01/18 09:10:04;;;;;;;;;65.75;52.25;;;;;;;;5074003;27;45383;-65
2022/01/18 09:12:29;;;;;;;;;77.50;61.00;;;;;;;;5074122;28;45176;-65
2022/01/18 09:14:54;;;;;;;;;77.75;62.00;;;;;;;;5074919;28;45667;-65
2022/01/18 09:17:19;;;;;;;;;69.25;54.75;;;;;;;;5053077;28;47699;-65
2022/01/18 09:19:45;;;;;;;;;73.25;58.50;;;;;;;;5063820;28;45547;-65
2022/01/18 09:22:10;;;;;;;;;91.50;77.00;;;;;;;;5072144;27;45404;-66
2022/01/18 09:24:35;;;;;;;;;60.75;48.75;;;;;;;;5074273;27;45361;-65
2022/01/18 09:27:01;;;;;;;;;77.50;62.25;;;;;;;;5075081;28;45407;-65
2022/01/18 09:29:26;;;;;;;;;65.00;52.50;;;;;;;;5073465;28;45368;-65
2022/01/18 09:31:52;;;;;;;;;79.00;61.50;;;;;;;;5071930;28;45412;-64
2022/01/18 09:34:17;;;;;;;;;74.75;60.25;;;;;;;;5072951;27;45452;-65
2022/01/18 09:36:43;;;;;;;;;56.25;46.00;;;;;;;;5071872;28;46738;-65
2022/01/18 09:39:08;;;;;;;;;46.50;39.25;;;;;;;;5075599;27;45994;-65
2022/01/18 09:41:38;;;;;;;;;42.25;39.50;;;;;;;;5071771;27;45395;-65
2022/01/18 09:44:03;;;;;;;;;59.75;48.50;;;;;;;;5073017;27;45350;-66
2022/01/18 09:46:29;;;;;;;;;57.75;47.75;;;;;;;;5072923;27;46126;-65
2022/01/18 09:48:55;;;;;;;;;80.50;64.00;;;;;;;;5071752;27;46253;-65
2022/01/18 09:51:21;;;;;;;;;68.00;55.25;;;;;;;;5075216;27;45372;-64
2022/01/18 09:53:46;;;;;;;;;78.25;61.50;;;;;;;;5072877;27;45475;-64
2022/01/18 09:56:12;;;;;;;;;59.00;48.00;;;;;;;;5070030;28;46348;-65
2022/01/18 09:58:37;;;;;;;;;68.00;51.75;;;;;;;;5072681;28;45585;-65
2022/01/18 10:01:02;;;;;;;;;82.25;68.75;;;;;;;;5072874;27;45361;-65
2022/01/18 10:03:27;;;;;;;;;61.75;50.00;;;;;;;;5066234;28;45428;-65
2022/01/18 10:05:53;;;;;;;;;48.50;41.25;;;;;;;;5073266;27;45788;-65
2022/01/18 10:08:18;;;;;;;;;47.75;40.75;;;;;;;;5072399;28;45290;-65
2022/01/18 10:10:48;;;;;;;;;57.50;47.75;;;;;;;;5072650;27;45381;-66
2022/01/18 10:13:22;;;;;;;;;52.25;44.25;;;;;;;;5072651;27;45392;-65
2022/01/18 10:16:03;;;;;;;;;66.50;52.00;;;;;;;;5071157;28;46737;-67
2022/01/18 10:18:37;;;;;;;;;36.00;32.75;;;;;;;;5070858;28;45437;-65
2022/01/18 10:21:06;;;;;;;;;21.50;21.00;;;;;;;;5072362;28;45673;-65
2022/01/18 10:23:31;;;;;;;;;31.50;30.75;;;;;;;;5072500;27;45419;-65
2022/01/18 10:25:56;;;;;;;;;38.25;30.50;;;;;;;;5072355;28;45416;-63
2022/01/18 10:28:32;;;;;;;;;38.00;32.00;;;;;;;;5072317;28;45355;-64
2022/01/18 10:31:01;;;;;;;;;38.50;32.75;;;;;;;;5057206;28;45491;-65
2022/01/18 10:33:35;;;;;;;;;33.25;29.00;;;;;;;;5073381;28;45395;-64
2022/01/18 10:36:12;;;;;;;;;36.75;31.75;;;;;;;;5073736;27;45729;-65
2022/01/18 10:38:38;;;;;;;;;26.75;26.75;;;;;;;;5067559;27;45415;-64
2022/01/18 10:41:21;;;;;;;;;29.25;26.75;;;;;;;;5065620;27;45425;-65
2022/01/18 10:44:01;;;;;;;;;35.25;31.50;;;;;;;;5063623;28;45433;-65
2022/01/18 10:46:32;;;;;;;;;35.50;31.25;;;;;;;;5072143;27;46631;-64
2022/01/18 10:48:57;;;;;;;;;30.50;26.50;;;;;;;;5072113;27;45568;-65
2022/01/18 10:51:29;;;;;;;;;31.50;30.50;;;;;;;;5074378;28;45338;-65
2022/01/18 10:53:56;;;;;;;;;30.50;29.50;;;;;;;;5070540;28;45533;-64
2022/01/18 10:56:21;;;;;;;;;35.00;31.75;;;;;;;;5071684;28;46396;-64
2022/01/18 10:58:48;;;;;;;;;26.00;22.00;;;;;;;;5071973;27;45498;-64
2022/01/18 11:01:17;;;;;;;;;36.00;32.00;;;;;;;;5072154;27;45444;-64
2022/01/18 11:04:02;;;;;;;;;32.50;31.25;;;;;;;;5071616;27;45362;-64
2022/01/18 11:06:27;;;;;;;;;37.00;32.00;;;;;;;;5069220;28;46685;-65
2022/01/18 11:08:52;;;;;;;;;33.50;30.25;;;;;;;;5070934;28;46193;-65
2022/01/18 11:11:24;;;;;;;;;35.00;29.75;;;;;;;;5072035;27;45450;-63
2022/01/18 11:13:49;;;;;;;;;24.50;24.50;;;;;;;;5072043;28;45422;-64
2022/01/18 11:16:23;;;;;;;;;25.50;22.50;;;;;;;;5071256;27;45487;-67
2022/01/18 11:18:49;;;;;;;;;23.50;22.50;;;;;;;;5068998;27;45527;-65
2022/01/18 11:21:18;;;;;;;;;23.75;21.00;;;;;;;;5072119;28;45440;-64
2022/01/18 11:23:44;;;;;;;;;24.75;22.25;;;;;;;;5072136;27;45584;-64
2022/01/18 11:26:10;;;;;;;;;21.00;17.75;;;;;;;;5071632;27;45431;-63
2022/01/18 11:28:37;;;;;;;;;29.25;24.00;;;;;;;;5071477;27;45574;-65
2022/01/18 11:31:02;;;;;;;;;28.50;24.00;;;;;;;;5072046;27;45419;-65
2022/01/18 11:33:30;;;;;;;;;21.50;21.50;;;;;;;;5073347;28;45320;-65
2022/01/18 11:36:01;;;;;;;;;24.50;20.50;;;;;;;;5072720;28;46434;-66
2022/01/18 11:38:46;;;;;;;;;26.25;22.50;;;;;;;;5070064;28;45457;-66
2022/01/18 11:41:25;;;;;;;;;27.25;21.25;;;;;;;;5071630;27;45400;-65
2022/01/18 11:43:51;;;;;;;;;21.75;19.75;;;;;;;;5071538;27;45524;-65
2022/01/18 11:46:26;;;;;;;;;24.00;20.25;;;;;;;;5071267;27;46617;-65
2022/01/18 11:49:18;;;;;;;;;20.25;17.75;;;;;;;;5067965;28;46558;-66
2022/01/18 11:51:56;;;;;;;;;19.75;16.00;;;;;;;;5067145;28;45595;-66
2022/01/18 11:57:22;;;;;;;;;20.00;19.00;;;;;;;;5069892;28;45632;-66
2022/01/18 11:59:52;;;;;;;;;16.25;16.00;;;;;;;;5071261;28;45477;-65
2022/01/18 12:02:33;;;;;;;;;16.50;13.25;;;;;;;;5067914;28;44792;-64
2022/01/18 12:05:04;;;;;;;;;12.50;12.50;;;;;;;;5070772;28;45510;-65
2022/01/18 12:07:38;;;;;;;;;10.50;10.50;;;;;;;;5069547;28;46736;-64
2022/01/18 12:10:06;;;;;;;;;13.75;12.25;;;;;;;;5071519;27;45538;-64
2022/01/18 12:12:46;;;;;;;;;8.75;6.00;;;;;;;;5072442;28;45362;-64
2022/01/18 12:15:24;;;;;;;;;13.75;10.00;;;;;;;;5072182;28;45326;-64
2022/01/18 12:17:51;;;;;;;;;10.25;9.50;;;;;;;;5071243;28;45891;-64
2022/01/18 12:20:35;;;;;;;;;12.25;11.00;;;;;;;;5070111;27;45522;-64
2022/01/18 12:23:01;;;;;;;;;11.25;10.25;;;;;;;;5067416;28;45716;-65
2022/01/18 12:25:28;;;;;;;;;13.75;11.75;;;;;;;;5066392;27;45484;-66
2022/01/18 12:27:55;;;;;;;;;13.00;12.50;;;;;;;;5066509;28;45752;-64
2022/01/18 12:30:53;;;;;;;;;11.00;9.25;;;;;;;;5072439;28;45518;-64
2022/01/18 12:33:19;;;;;;;;;15.00;13.75;;;;;;;;5069446;27;45387;-66
2022/01/18 12:35:45;;;;;;;;;14.00;11.75;;;;;;;;5071326;28;45400;-66
2022/01/18 12:38:20;;;;;;;;;11.50;11.50;;;;;;;;5067010;27;47503;-66
2022/01/18 12:40:46;;;;;;;;;12.75;12.50;;;;;;;;5074166;27;45426;-67
2022/01/18 12:45:39;;;;;;;;;12.50;12.00;;;;;;;;5074637;28;45497;-66
2022/01/18 12:48:07;;;;;;;;;11.00;10.00;;;;;;;;5066273;28;46809;-67
2022/01/18 12:50:33;;;;;;;;;14.25;11.50;;;;;;;;5072460;27;45535;-67
2022/01/18 12:52:58;;;;;;;;;13.50;11.75;;;;;;;;5064687;28;45482;-67
2022/01/18 12:55:45;;;;;;;;;17.25;12.25;;;;;;;;5066003;27;45401;-67
2022/01/18 12:58:17;;;;;;;;;13.25;12.25;;;;;;;;5071230;27;45852;-67
2022/01/18 13:00:51;;;;;;;;;15.00;9.75;;;;;;;;5073347;28;45420;-67
2022/01/18 13:03:24;;;;;;;;;13.75;13.75;;;;;;;;5076068;27;45434;-66
2022/01/18 13:05:51;;;;;;;;;12.75;11.50;;;;;;;;5072821;27;45538;-66
2022/01/18 13:08:17;;;;;;;;;16.75;13.25;;;;;;;;5073490;28;45471;-66
2022/01/18 13:10:42;;;;;;;;;9.50;9.50;;;;;;;;5073687;27;46021;-65
2022/01/18 13:13:09;;;;;;;;;11.75;9.75;;;;;;;;5074069;28;46112;-64
2022/01/18 13:15:50;;;;;;;;;14.00;14.00;;;;;;;;5074387;28;45550;-65
2022/01/18 13:22:57;;;;;;;;;9.25;9.25;;;;;;;;5075680;28;45338;-66
2022/01/18 13:26:41;;;;;;;;;8.75;8.00;;;;;;;;5072390;27;45342;-65
2022/01/18 13:29:11;;;;;;;;;16.50;13.75;;;;;;;;5072112;28;46745;-65
2022/01/18 13:31:36;;;;;;;;;16.00;16.00;;;;;;;;5071968;28;45326;-66
2022/01/18 13:34:02;;;;;;;;;16.00;16.00;;;;;;;;5073603;28;45581;-65
2022/01/18 13:36:33;;;;;;;;;17.50;15.25;;;;;;;;5073480;28;45464;-66
2022/01/18 13:39:18;;;;;;;;;16.50;14.75;;;;;;;;5074441;28;45601;-65
2022/01/18 13:41:44;;;;;;;;;18.50;17.25;;;;;;;;5072439;28;45376;-67
2022/01/18 13:44:09;;;;;;;;;12.50;11.50;;;;;;;;5073400;28;45372;-66
2022/01/18 13:46:34;;;;;;;;;16.50;15.25;;;;;;;;5073096;27;45536;-65
2022/01/18 13:49:06;;;;;;;;;15.25;15.25;;;;;;;;5073137;27;46997;-65
2022/01/18 13:51:31;;;;;;;;;17.25;14.50;;;;;;;;5073129;28;45412;-64
2022/01/18 13:54:03;;;;;;;;;15.75;15.00;;;;;;;;5074380;28;45495;-65
2022/01/18 13:56:28;;;;;;;;;17.00;16.00;;;;;;;;5073267;27;45502;-65
2022/01/18 13:59:00;;;;;;;;;16.25;15.50;;;;;;;;5072925;28;45577;-65
2022/01/18 14:01:28;;;;;;;;;19.25;16.00;;;;;;;;5073035;27;45506;-66
2022/01/18 14:03:54;;;;;;;;;19.00;16.00;;;;;;;;5057239;28;45413;-66
2022/01/18 14:06:20;;;;;;;;;17.75;17.75;;;;;;;;5075180;27;45693;-66
2022/01/18 14:08:49;;;;;;;;;18.50;16.50;;;;;;;;5072671;27;46442;-65
2022/01/18 14:11:18;;;;;;;;;19.00;17.25;;;;;;;;5072648;27;45840;-66
2022/01/18 14:13:43;;;;;;;;;21.00;17.25;;;;;;;;5072575;27;45385;-66
2022/01/18 14:16:21;;;;;;;;;17.00;15.50;;;;;;;;5072888;27;45488;-65
2022/01/18 14:18:49;;;;;;;;;17.75;17.75;;;;;;;;5072578;28;46511;-65
2022/01/18 14:21:31;;;;;;;;;16.00;16.00;;;;;;;;5074602;27;45395;-65
2022/01/18 14:24:16;;;;;;;;;12.25;12.25;;;;;;;;5073429;28;45321;-65
2022/01/18 14:26:54;;;;;;;;;14.75;12.75;;;;;;;;5071743;27;45474;-65
2022/01/18 14:29:22;;;;;;;;;14.50;11.00;;;;;;;;5068256;28;46826;-64
2022/01/18 14:31:58;;;;;;;;;17.75;16.00;;;;;;;;5070875;28;46160;-64
2022/01/18 14:34:27;;;;;;;;;16.00;15.00;;;;;;;;5055727;28;45423;-65
2022/01/18 14:36:55;;;;;;;;;18.00;15.75;;;;;;;;5056370;28;45463;-65
2022/01/18 14:39:20;;;;;;;;;15.25;14.25;;;;;;;;5068435;28;46642;-64
2022/01/18 14:41:47;;;;;;;;;16.00;14.00;;;;;;;;5068548;28;46123;-64
2022/01/18 14:44:23;;;;;;;;;15.75;14.00;;;;;;;;5072257;27;45482;-65
2022/01/18 14:47:24;;;;;;;;;18.75;18.00;;;;;;;;5072323;27;45403;-64
2022/01/18 14:49:42;;;;;;;;;17.25;17.00;;;;;;;;5071742;27;45438;-64
2022/01/18 14:52:08;;;;;;;;;15.00;13.75;;;;;;;;5071970;27;45981;-65
2022/01/18 14:54:33;;;;;;;;;12.75;12.75;;;;;;;;5072932;28;45406;-65
2022/01/18 14:56:58;;;;;;;;;16.50;14.00;;;;;;;;5073253;28;45498;-65
2022/01/18 14:59:25;;;;;;;;;20.00;17.00;;;;;;;;5070331;27;47668;-65
2022/01/18 15:01:51;;;;;;;;;13.75;12.75;;;;;;;;5071596;28;45388;-65
2022/01/18 15:04:17;;;;;;;;;15.25;13.25;;;;;;;;5071976;27;45432;-65
2022/01/18 15:06:42;;;;;;;;;11.00;11.00;;;;;;;;5071796;28;45360;-64
2022/01/18 15:09:07;;;;;;;;;13.75;12.00;;;;;;;;5072645;28;45813;-66
2022/01/18 15:11:36;;;;;;;;;11.75;11.75;;;;;;;;5071748;27;45469;-66
2022/01/18 15:14:01;;;;;;;;;10.25;10.25;;;;;;;;5072012;27;45516;-65
2022/01/18 15:16:27;;;;;;;;;16.50;13.25;;;;;;;;5072074;27;45507;-66
2022/01/18 15:18:53;;;;;;;;;14.75;12.75;;;;;;;;5055850;28;47440;-66
2022/01/18 15:21:18;;;;;;;;;16.75;15.50;;;;;;;;5072384;28;45470;-66
2022/01/18 15:23:43;;;;;;;;;14.50;14.50;;;;;;;;5071936;27;45431;-65
2022/01/18 15:26:09;;;;;;;;;13.50;12.00;;;;;;;;5070449;28;45526;-64
2022/01/18 15:28:35;;;;;;;;;15.75;13.50;;;;;;;;5071652;28;45727;-64
2022/01/18 15:31:00;;;;;;;;;16.00;13.25;;;;;;;;5071390;28;45417;-64
2022/01/18 15:33:27;;;;;;;;;13.75;9.00;;;;;;;;5073384;28;45516;-65